createdAt,value
2023-05-15T00:02:26.890Z,15.57
2023-05-15T00:04:54.217Z,16.70
2023-05-15T00:07:21.164Z,16.38
2023-05-15T00:09:48.210Z,14.48
2023-05-15T00:12:15.578Z,16.73
2023-05-15T00:14:42.637Z,16.45
2023-05-15T00:17:10.028Z,16.55
2023-05-15T00:19:37.000Z,14.80
2023-05-15T00:22:04.213Z,13.32
2023-05-15T00:24:31.319Z,16.75
2023-05-15T00:27:00.863Z,14.68
2023-05-15T00:29:28.066Z,15.93
2023-05-15T00:31:55.124Z,15.60
2023-05-15T00:34:26.230Z,15.93
2023-05-15T00:36:53.236Z,15.45
2023-05-15T00:39:20.190Z,14.20
2023-05-15T00:41:49.941Z,16.40
2023-05-15T00:44:20.095Z,14.38
2023-05-15T00:46:48.761Z,17.08
2023-05-15T00:49:18.507Z,15.20
2023-05-15T00:51:46.331Z,13.48
2023-05-15T00:54:13.440Z,14.73
2023-05-15T00:59:11.877Z,14.70
2023-05-15T01:01:39.376Z,14.75
2023-05-15T01:04:06.361Z,16.35
2023-05-15T01:06:33.266Z,14.02
2023-05-15T01:09:04.004Z,14.73
2023-05-15T01:11:36.452Z,14.48
2023-05-15T01:14:06.643Z,15.02
2023-05-15T01:16:35.987Z,16.00
2023-05-15T01:19:04.261Z,15.85
2023-05-15T01:21:37.723Z,15.30
2023-05-15T01:24:27.816Z,14.15
2023-05-15T01:27:19.773Z,16.67
2023-05-15T01:30:04.752Z,15.77
2023-05-15T01:32:46.306Z,15.30
2023-05-15T01:35:25.671Z,14.88
2023-05-15T01:38:20.285Z,16.15
2023-05-15T01:40:59.821Z,16.23
2023-05-15T01:45:58.782Z,17.83
2023-05-15T01:48:28.508Z,16.63
2023-05-15T01:51:01.230Z,18.23
2023-05-15T01:53:32.053Z,15.35
2023-05-15T01:55:59.813Z,15.43
2023-05-15T01:58:28.596Z,15.57
2023-05-15T02:00:56.495Z,14.98
2023-05-15T02:03:24.845Z,18.55
2023-05-15T02:05:53.647Z,13.60
2023-05-15T02:08:21.722Z,15.90
2023-05-15T02:10:50.045Z,18.38
2023-05-15T02:13:22.489Z,15.55
2023-05-15T02:15:49.766Z,19.45
2023-05-15T02:18:16.914Z,15.98
2023-05-15T02:20:44.333Z,24.30
2023-05-15T02:23:11.351Z,18.75
2023-05-15T02:26:01.260Z,18.33
2023-05-15T02:28:38.869Z,18.40
2023-05-15T02:31:11.998Z,16.70
2023-05-15T02:33:52.958Z,18.90
2023-05-15T02:36:26.012Z,20.35
2023-05-15T02:38:53.973Z,18.08
2023-05-15T02:41:22.967Z,21.58
2023-05-15T02:43:52.038Z,16.92
2023-05-15T02:46:21.271Z,19.33
2023-05-15T02:51:15.593Z,19.70
2023-05-15T02:53:43.370Z,20.15
2023-05-15T02:56:10.544Z,19.65
2023-05-15T02:58:38.784Z,22.25
2023-05-15T03:01:06.187Z,21.63
2023-05-15T03:03:33.288Z,18.42
2023-05-15T03:06:01.132Z,19.50
2023-05-15T03:08:29.182Z,19.20
2023-05-15T03:10:56.248Z,20.33
2023-05-15T03:13:23.393Z,18.63
2023-05-15T03:15:50.304Z,19.33
2023-05-15T03:18:19.009Z,17.30
2023-05-15T03:20:48.684Z,21.08
2023-05-15T03:23:16.129Z,19.13
2023-05-15T03:25:43.134Z,20.35
2023-05-15T03:28:10.235Z,18.83
2023-05-15T03:30:37.252Z,23.20
2023-05-15T03:33:04.274Z,22.88
2023-05-15T03:35:32.520Z,21.33
2023-05-15T03:37:59.607Z,18.50
2023-05-15T03:40:26.642Z,21.42
2023-05-15T03:42:53.829Z,21.13
2023-05-15T03:45:21.506Z,23.02
2023-05-15T03:47:49.285Z,20.92
2023-05-15T03:50:16.480Z,20.98
2023-05-15T03:52:43.817Z,22.08
2023-05-15T03:55:11.175Z,20.48
2023-05-15T03:57:41.597Z,22.92
2023-05-15T04:00:12.257Z,20.67
2023-05-15T04:02:41.128Z,22.85
2023-05-15T04:05:08.990Z,19.20
2023-05-15T04:07:37.052Z,18.85
2023-05-15T04:10:04.846Z,19.90
2023-05-15T04:12:36.008Z,19.13
2023-05-15T04:15:23.797Z,18.15
2023-05-15T04:17:52.696Z,20.77
2023-05-15T04:20:21.862Z,21.00
2023-05-15T04:22:49.724Z,21.95
2023-05-15T04:25:18.125Z,23.23
2023-05-15T04:27:45.271Z,19.67
2023-05-15T04:30:12.926Z,22.58
2023-05-15T04:32:40.487Z,23.15
2023-05-15T04:35:10.254Z,21.27
2023-05-15T04:37:38.485Z,20.50
2023-05-15T04:40:07.589Z,19.75
2023-05-15T04:42:35.665Z,18.25
2023-05-15T04:45:03.135Z,21.73
2023-05-15T04:47:34.291Z,22.98
2023-05-15T04:50:01.309Z,21.73
2023-05-15T04:52:28.936Z,23.50
2023-05-15T04:54:56.267Z,20.17
2023-05-15T04:57:23.738Z,20.25
2023-05-15T04:59:50.719Z,20.88
2023-05-15T05:02:26.693Z,20.92
2023-05-15T05:04:53.651Z,20.05
2023-05-15T05:07:20.607Z,21.10
2023-05-15T05:09:47.705Z,21.50
2023-05-15T05:12:14.741Z,25.30
2023-05-15T05:14:42.325Z,24.85
2023-05-15T05:17:10.516Z,25.75
2023-05-15T05:19:37.439Z,26.90
2023-05-15T05:22:05.514Z,26.08
2023-05-15T05:24:32.780Z,24.15
2023-05-15T05:27:00.370Z,23.38
2023-05-15T05:29:27.518Z,27.55
2023-05-15T05:31:54.702Z,25.35
2023-05-15T05:34:21.878Z,25.45
2023-05-15T05:36:49.541Z,25.13
2023-05-15T05:39:17.182Z,25.70
2023-05-15T05:41:44.734Z,25.95
2023-05-15T05:44:11.666Z,25.13
2023-05-15T05:46:38.865Z,30.58
2023-05-15T05:49:06.322Z,36.72
2023-05-15T05:51:36.795Z,28.83
2023-05-15T05:54:04.088Z,23.92
2023-05-15T05:56:31.464Z,23.55
2023-05-15T05:58:59.640Z,25.35
2023-05-15T06:01:27.648Z,25.90
2023-05-15T06:03:56.020Z,22.52
2023-05-15T06:06:23.552Z,21.75
2023-05-15T06:08:50.628Z,22.25
2023-05-15T06:11:17.829Z,22.10
2023-05-15T06:13:45.037Z,23.20
2023-05-15T06:16:12.153Z,21.20
2023-05-15T06:18:39.167Z,21.10
2023-05-15T06:21:06.346Z,23.77
2023-05-15T06:23:33.287Z,25.88
2023-05-15T06:26:01.761Z,22.70
2023-05-15T06:28:28.961Z,22.42
2023-05-15T06:30:56.106Z,25.35
2023-05-15T06:33:23.035Z,26.70
2023-05-15T06:35:50.048Z,24.50
2023-05-15T06:38:16.992Z,23.80
2023-05-15T06:40:43.995Z,22.52
2023-05-15T06:43:11.154Z,25.55
2023-05-15T06:45:38.212Z,24.45
2023-05-15T06:48:05.412Z,25.05
2023-05-15T06:50:32.381Z,20.77
2023-05-15T06:52:59.325Z,25.05
2023-05-15T06:55:26.534Z,22.13
2023-05-15T06:57:53.822Z,21.42
2023-05-15T07:00:21.059Z,23.73
2023-05-15T07:02:48.049Z,21.27
2023-05-15T07:05:15.352Z,20.13
2023-05-15T07:07:42.997Z,20.63
2023-05-15T07:10:10.295Z,23.95
2023-05-15T07:12:37.292Z,19.73
2023-05-15T07:15:05.593Z,20.98
2023-05-15T07:17:34.082Z,19.33
2023-05-15T07:20:01.427Z,20.80
2023-05-15T07:22:29.421Z,24.38
2023-05-15T07:24:56.435Z,19.58
2023-05-15T07:27:23.448Z,19.65
2023-05-15T07:29:50.550Z,19.35
2023-05-15T07:32:17.548Z,20.83
2023-05-15T07:34:44.560Z,18.77
2023-05-15T07:37:11.475Z,20.00
2023-05-15T07:39:38.475Z,19.83
2023-05-15T07:42:05.570Z,22.92
2023-05-15T07:44:32.509Z,21.50
2023-05-15T07:46:59.841Z,20.90
2023-05-15T07:49:26.798Z,25.20
2023-05-15T07:51:53.656Z,24.17
2023-05-15T07:54:20.918Z,22.33
2023-05-15T07:56:47.933Z,21.27
2023-05-15T07:59:16.140Z,22.35
2023-05-15T08:01:43.120Z,22.55
2023-05-15T08:04:10.217Z,20.88
2023-05-15T08:06:38.452Z,23.45
2023-05-15T08:09:05.445Z,23.75
2023-05-15T08:11:32.402Z,20.80
2023-05-15T08:13:59.496Z,23.30
2023-05-15T08:16:26.567Z,24.25
2023-05-15T08:19:01.026Z,23.77
2023-05-15T08:21:28.035Z,21.35
2023-05-15T08:23:54.989Z,23.45
2023-05-15T08:26:22.513Z,26.88
2023-05-15T08:28:49.405Z,25.20
2023-05-15T08:31:16.389Z,25.90
2023-05-15T08:33:43.479Z,25.75
2023-05-15T08:36:10.605Z,25.10
2023-05-15T08:38:37.468Z,24.60
2023-05-15T08:41:40.998Z,27.38
2023-05-15T08:44:09.669Z,23.60
2023-05-15T08:46:36.905Z,22.57
2023-05-15T08:49:20.805Z,22.23
2023-05-15T08:51:48.329Z,23.95
2023-05-15T08:54:16.205Z,22.58
2023-05-15T08:56:43.579Z,22.65
2023-05-15T08:59:10.724Z,23.30
2023-05-15T09:01:38.011Z,21.00
2023-05-15T09:04:05.153Z,20.83
2023-05-15T09:06:34.063Z,20.63
2023-05-15T09:09:01.909Z,21.13
2023-05-15T09:11:31.193Z,22.38
2023-05-15T09:13:59.755Z,25.42
2023-05-15T09:16:27.442Z,21.67
2023-05-15T09:18:54.619Z,21.85
2023-05-15T09:21:26.251Z,24.30
2023-05-15T09:23:55.058Z,22.70
2023-05-15T09:26:22.216Z,23.40
2023-05-15T09:28:49.736Z,22.13
2023-05-15T09:31:19.606Z,22.17
2023-05-15T09:33:46.762Z,24.65
2023-05-15T09:36:22.276Z,22.90
2023-05-15T09:38:49.832Z,21.15
2023-05-15T09:41:25.832Z,22.35
2023-05-15T09:43:56.165Z,20.90
2023-05-15T09:46:24.016Z,21.52
2023-05-15T09:48:55.482Z,22.27
2023-05-15T09:51:23.021Z,20.98
2023-05-15T09:53:52.067Z,18.65
2023-05-15T09:56:19.530Z,20.65
2023-05-15T09:58:57.463Z,20.75
2023-05-15T10:01:26.190Z,21.45
2023-05-15T10:03:58.711Z,17.77
2023-05-15T10:06:25.755Z,19.92
2023-05-15T10:08:54.268Z,19.02
2023-05-15T10:11:23.938Z,19.00
2023-05-15T10:13:50.853Z,16.70
2023-05-15T10:16:21.841Z,18.83
2023-05-15T10:18:51.735Z,18.90
2023-05-15T10:21:20.548Z,21.50
2023-05-15T10:23:50.131Z,21.20
2023-05-15T10:26:33.295Z,20.73
2023-05-15T10:29:01.269Z,20.52
2023-05-15T10:31:30.211Z,18.05
2023-05-15T10:33:57.636Z,22.33
2023-05-15T10:36:25.443Z,19.10
2023-05-15T10:38:53.137Z,18.23
2023-05-15T10:41:22.315Z,17.10
2023-05-15T10:46:17.127Z,19.60
2023-05-15T10:48:44.381Z,18.88
2023-05-15T10:51:19.018Z,19.08
2023-05-15T10:53:46.313Z,23.08
2023-05-15T10:56:17.221Z,19.42
2023-05-15T10:58:48.850Z,16.15
2023-05-15T11:01:26.979Z,20.27
2023-05-15T11:04:15.050Z,27.30
2023-05-15T11:06:47.638Z,20.92
2023-05-15T11:09:36.987Z,20.75
2023-05-15T11:12:05.622Z,19.55
2023-05-15T11:14:41.095Z,21.17
2023-05-15T11:17:15.310Z,23.35
2023-05-15T11:19:51.554Z,19.17
2023-05-15T11:22:26.875Z,21.48
2023-05-15T11:25:12.468Z,22.30
2023-05-15T11:27:44.260Z,20.27
2023-05-15T11:30:22.555Z,20.63
2023-05-15T11:32:54.766Z,22.02
2023-05-15T11:35:34.835Z,19.95
2023-05-15T11:38:11.109Z,19.50
2023-05-15T11:40:46.559Z,26.17
2023-05-15T11:43:22.573Z,28.75
2023-05-15T11:45:58.129Z,20.30
2023-05-15T11:48:32.939Z,20.83
2023-05-15T11:51:04.339Z,19.80
2023-05-15T11:53:33.422Z,20.00
2023-05-15T11:56:00.875Z,23.02
2023-05-15T11:58:28.371Z,20.25
2023-05-15T12:00:55.441Z,18.77
2023-05-15T12:03:25.634Z,20.55
2023-05-15T12:05:59.494Z,20.67
2023-05-15T12:08:35.356Z,18.25
2023-05-15T12:11:03.602Z,20.75
2023-05-15T12:13:32.261Z,21.08
2023-05-15T12:16:00.928Z,19.33
2023-05-15T12:18:27.947Z,18.75
2023-05-15T12:20:55.231Z,22.02
2023-05-15T12:23:24.513Z,21.08
2023-05-15T12:25:57.695Z,19.42
2023-05-15T12:28:25.410Z,17.58
2023-05-15T12:30:53.100Z,19.90
2023-05-15T12:33:20.404Z,17.65
2023-05-15T12:35:54.957Z,21.23
2023-05-15T12:38:24.983Z,23.38
2023-05-15T12:40:57.041Z,21.40
2023-05-15T12:43:25.338Z,21.77
2023-05-15T12:45:53.875Z,19.90
2023-05-15T12:48:21.901Z,21.65
2023-05-15T12:50:49.946Z,19.52
2023-05-15T12:53:17.554Z,22.55
2023-05-15T12:55:46.898Z,23.23
2023-05-15T13:00:46.113Z,17.02
2023-05-15T13:03:14.510Z,17.45
2023-05-15T13:05:45.588Z,14.43
2023-05-15T13:08:17.753Z,17.23
2023-05-15T13:10:45.501Z,14.60
2023-05-15T13:13:12.642Z,16.10
2023-05-15T13:15:42.748Z,15.98
2023-05-15T13:18:10.597Z,15.38
2023-05-15T13:20:47.324Z,17.00
2023-05-15T13:23:19.720Z,16.40
2023-05-15T13:25:47.641Z,21.50
2023-05-15T13:28:14.731Z,16.23
2023-05-15T13:30:42.305Z,15.88
2023-05-15T13:33:11.936Z,15.52
2023-05-15T13:35:40.318Z,17.48
2023-05-15T13:38:10.339Z,17.00
2023-05-15T13:40:38.632Z,16.02
2023-05-15T13:43:08.621Z,15.00
2023-05-15T13:45:35.791Z,25.63
2023-05-15T13:48:04.239Z,21.73
2023-05-15T13:50:31.184Z,18.25
2023-05-15T13:52:58.246Z,16.67
2023-05-15T13:55:26.152Z,16.15
2023-05-15T13:57:53.377Z,20.50
2023-05-15T14:00:21.412Z,16.40
2023-05-15T14:02:48.494Z,17.27
2023-05-15T14:05:16.333Z,18.83
2023-05-15T14:07:43.402Z,14.48
2023-05-15T14:10:11.311Z,17.67
2023-05-15T14:12:38.669Z,21.42
2023-05-15T14:15:06.496Z,16.83
2023-05-15T14:17:35.336Z,18.83
2023-05-15T14:20:02.690Z,17.17
2023-05-15T14:24:58.641Z,15.77
2023-05-15T14:27:25.793Z,15.02
2023-05-15T14:29:52.878Z,17.92
2023-05-15T14:32:20.080Z,15.52
2023-05-15T14:34:47.138Z,19.58
2023-05-15T14:37:14.272Z,15.75
2023-05-15T14:39:41.328Z,17.10
2023-05-15T14:42:08.303Z,14.82
2023-05-15T14:44:35.336Z,14.80
2023-05-15T14:47:20.373Z,14.23
2023-05-15T14:49:47.794Z,19.13
2023-05-15T14:52:14.724Z,18.15
2023-05-15T14:54:41.690Z,14.45
2023-05-15T14:57:08.880Z,14.85
2023-05-15T14:59:35.910Z,14.27
2023-05-15T15:02:02.961Z,13.43
2023-05-15T15:04:34.154Z,16.60
2023-05-15T15:07:04.174Z,13.32
2023-05-15T15:09:31.442Z,16.02
2023-05-15T15:11:58.523Z,15.05
2023-05-15T15:14:25.561Z,13.98
2023-05-15T15:16:52.467Z,13.48
2023-05-15T15:19:20.416Z,13.80
2023-05-15T15:21:47.832Z,21.55
2023-05-15T15:24:15.467Z,13.77
2023-05-15T15:26:42.641Z,13.45
2023-05-15T15:29:09.620Z,13.88
2023-05-15T15:31:36.603Z,14.48
2023-05-15T15:34:05.589Z,10.40
2023-05-15T15:38:59.676Z,19.08
2023-05-15T15:41:26.681Z,14.32
2023-05-15T15:43:53.833Z,11.27
2023-05-15T15:46:20.931Z,23.65
2023-05-15T15:48:48.525Z,12.52
2023-05-15T15:51:16.276Z,16.98
2023-05-15T15:53:43.134Z,14.80
2023-05-15T15:56:10.067Z,15.77
2023-05-15T15:58:36.956Z,12.30
2023-05-15T16:01:04.131Z,13.10
2023-05-15T16:03:31.599Z,65.78
2023-05-15T16:06:00.138Z,13.88
2023-05-15T16:08:27.373Z,10.13
2023-05-15T16:11:13.022Z,12.52
2023-05-15T16:13:41.061Z,13.65
2023-05-15T16:16:08.653Z,12.10
2023-05-15T16:18:35.757Z,15.65
2023-05-15T16:21:02.769Z,16.60
2023-05-15T16:23:33.978Z,14.88
2023-05-15T16:26:02.383Z,19.10
2023-05-15T16:28:29.278Z,15.93
2023-05-15T16:30:56.770Z,18.13
2023-05-15T16:33:23.973Z,19.88
2023-05-15T16:35:51.982Z,17.75
2023-05-15T16:38:20.078Z,20.35
2023-05-15T16:40:47.107Z,18.90
2023-05-15T16:43:14.313Z,20.90
2023-05-15T16:45:41.293Z,19.35
2023-05-15T16:48:08.496Z,18.85
2023-05-15T16:50:36.454Z,22.75
2023-05-15T16:53:04.965Z,20.73
2023-05-15T16:55:32.439Z,19.70
2023-05-15T16:57:59.637Z,21.08
2023-05-15T17:00:27.024Z,23.58
2023-05-15T17:02:54.844Z,20.77
2023-05-15T17:05:21.978Z,20.30
2023-05-15T17:07:48.913Z,23.27
2023-05-15T17:10:16.277Z,22.00
2023-05-15T17:12:43.381Z,25.10
2023-05-15T17:15:11.551Z,23.58
2023-05-15T17:17:38.468Z,25.08
2023-05-15T17:20:06.571Z,25.25
2023-05-15T17:22:34.370Z,20.63
2023-05-15T17:25:01.391Z,21.98
2023-05-15T17:27:31.293Z,22.83
2023-05-15T17:29:58.842Z,26.63
2023-05-15T17:32:25.908Z,20.75
2023-05-15T17:34:53.059Z,21.92
2023-05-15T17:37:19.958Z,20.88
2023-05-15T17:39:46.961Z,21.75
2023-05-15T17:42:13.919Z,25.08
2023-05-15T17:44:40.961Z,24.17
2023-05-15T17:47:09.830Z,22.63
2023-05-15T17:49:38.157Z,27.70
2023-05-15T17:52:06.086Z,25.50
2023-05-15T17:54:33.187Z,21.13
2023-05-15T17:57:00.357Z,22.80
2023-05-15T17:59:27.591Z,26.45
2023-05-15T18:01:54.701Z,18.77
2023-05-15T18:04:21.771Z,22.88
2023-05-15T18:06:49.112Z,21.27
2023-05-15T18:09:23.210Z,22.42
2023-05-15T18:11:51.599Z,24.35
2023-05-15T18:14:21.589Z,25.20
2023-05-15T18:16:48.710Z,23.00
2023-05-15T18:19:16.155Z,22.95
2023-05-15T18:21:43.090Z,24.92
2023-05-15T18:24:10.117Z,25.75
2023-05-15T18:26:37.055Z,22.75
2023-05-15T18:29:04.415Z,30.50
2023-05-15T18:31:31.539Z,24.58
2023-05-15T18:33:58.494Z,24.75
2023-05-15T18:36:25.881Z,26.27
2023-05-15T18:38:52.945Z,30.00
2023-05-15T18:41:19.916Z,24.67
2023-05-15T18:43:47.051Z,27.20
2023-05-15T18:46:14.061Z,25.25
2023-05-15T18:48:41.147Z,27.90
2023-05-15T18:51:09.666Z,26.42
2023-05-15T18:53:36.991Z,26.88
2023-05-15T18:56:04.599Z,29.23
2023-05-15T18:58:31.743Z,25.02
2023-05-15T19:00:58.898Z,24.95
2023-05-15T19:03:26.304Z,27.52
2023-05-15T19:05:53.348Z,27.48
2023-05-15T19:08:20.613Z,25.60
2023-05-15T19:10:48.473Z,50.67
2023-05-15T19:13:15.519Z,27.42
2023-05-15T19:15:50.792Z,26.88
2023-05-15T19:18:18.343Z,29.50
2023-05-15T19:20:49.693Z,27.35
2023-05-15T19:23:16.698Z,25.13
2023-05-15T19:25:45.042Z,26.10
2023-05-15T19:28:13.158Z,27.85
2023-05-15T19:30:40.478Z,28.10
2023-05-15T19:33:07.632Z,26.85
2023-05-15T19:35:36.702Z,26.92
2023-05-15T19:38:04.665Z,27.88
2023-05-15T19:40:31.612Z,26.75
2023-05-15T19:42:58.622Z,31.55
2023-05-15T19:45:25.714Z,28.85
2023-05-15T19:47:53.170Z,32.38
2023-05-15T19:50:20.481Z,30.45
2023-05-15T19:52:47.605Z,29.98
2023-05-15T19:55:15.435Z,28.70
2023-05-15T19:57:44.917Z,29.85
2023-05-15T20:00:12.812Z,27.40
2023-05-15T20:02:41.473Z,25.73
2023-05-15T20:05:09.418Z,28.42
2023-05-15T20:07:37.006Z,29.55
2023-05-15T20:10:04.766Z,29.98
2023-05-15T20:12:31.828Z,28.88
2023-05-15T20:14:58.753Z,28.08
2023-05-15T20:17:25.737Z,27.50
2023-05-15T20:19:53.879Z,29.23
2023-05-15T20:22:20.721Z,31.05
2023-05-15T20:24:48.255Z,33.63
2023-05-15T20:27:15.367Z,30.33
2023-05-15T20:29:42.267Z,29.02
2023-05-15T20:32:09.239Z,31.08
2023-05-15T20:34:36.929Z,30.23
2023-05-15T20:37:03.910Z,32.63
2023-05-15T20:39:31.178Z,30.17
2023-05-15T20:41:58.081Z,34.95
2023-05-15T20:44:25.120Z,30.17
2023-05-15T20:46:52.050Z,32.67
2023-05-15T20:49:19.085Z,31.88
2023-05-15T20:51:48.578Z,36.15
2023-05-15T20:54:16.160Z,31.65
2023-05-15T20:56:43.253Z,30.30
2023-05-15T20:59:10.349Z,32.22
2023-05-15T21:01:37.199Z,30.30
2023-05-15T21:04:04.507Z,34.25
2023-05-15T21:06:31.697Z,33.10
2023-05-15T21:08:58.618Z,31.35
2023-05-15T21:11:25.823Z,32.17
2023-05-15T21:13:52.793Z,33.58
2023-05-15T21:16:19.764Z,31.42
2023-05-15T21:18:48.901Z,32.10
2023-05-15T21:21:16.619Z,32.70
2023-05-15T21:23:43.674Z,31.40
2023-05-15T21:26:11.005Z,37.20
2023-05-15T21:28:37.919Z,31.15
2023-05-15T21:31:11.668Z,31.67
2023-05-15T21:33:38.729Z,30.00
2023-05-15T21:36:06.019Z,35.25
2023-05-15T21:38:33.080Z,28.52
2023-05-15T21:41:01.123Z,32.92
2023-05-15T21:43:28.251Z,32.20
2023-05-15T21:45:56.135Z,32.10
2023-05-15T21:48:23.282Z,33.17
2023-05-15T21:50:50.796Z,31.13
2023-05-15T21:53:17.690Z,30.92
2023-05-15T21:55:44.665Z,33.95
2023-05-15T21:58:11.674Z,32.85
2023-05-15T22:00:39.915Z,32.17
2023-05-15T22:03:06.920Z,31.48
2023-05-15T22:05:34.386Z,29.52
2023-05-15T22:08:01.248Z,30.80
2023-05-15T22:10:28.485Z,28.90
2023-05-15T22:12:55.513Z,25.83
2023-05-15T22:15:22.871Z,28.48
2023-05-15T22:17:50.406Z,25.98
2023-05-15T22:20:19.027Z,27.73
2023-05-15T22:22:46.368Z,59.80
2023-05-15T22:25:13.721Z,25.45
2023-05-15T22:27:41.073Z,26.67
2023-05-15T22:30:08.828Z,24.92
2023-05-15T22:32:35.957Z,27.08
2023-05-15T22:35:03.624Z,22.98
2023-05-15T22:37:31.824Z,23.08
2023-05-15T22:39:58.892Z,22.45
2023-05-15T22:42:27.843Z,20.80
2023-05-15T22:44:58.002Z,24.90
2023-05-15T22:47:28.255Z,21.63
2023-05-15T22:49:55.227Z,23.92
2023-05-15T22:52:22.667Z,20.88
2023-05-15T22:54:49.754Z,20.13
2023-05-15T22:57:16.752Z,22.60
2023-05-15T22:59:44.072Z,21.58
2023-05-15T23:02:11.151Z,25.38
2023-05-15T23:04:38.030Z,25.73
2023-05-15T23:07:05.143Z,26.25
2023-05-15T23:09:32.025Z,23.30
2023-05-15T23:11:59.024Z,23.48
2023-05-15T23:14:25.962Z,24.25
2023-05-15T23:16:52.914Z,26.17
2023-05-15T23:19:19.927Z,26.67
2023-05-15T23:21:47.294Z,26.30
2023-05-15T23:24:14.330Z,23.65
2023-05-15T23:26:41.268Z,21.25
2023-05-15T23:29:08.553Z,24.63
2023-05-15T23:31:35.627Z,23.10
2023-05-15T23:34:02.545Z,22.42
2023-05-15T23:36:29.548Z,25.23
2023-05-15T23:38:56.500Z,23.27
2023-05-15T23:41:23.486Z,22.63
2023-05-15T23:43:50.537Z,24.35
2023-05-15T23:46:18.194Z,22.52
2023-05-15T23:48:45.090Z,22.13
2023-05-15T23:51:12.156Z,26.80
2023-05-15T23:53:39.006Z,25.63
2023-05-15T23:56:07.088Z,26.52
2023-05-15T23:58:34.307Z,26.65
